Time;durP1;ratioP1;P1;durP2;ratioP2;P2;SDS_P1;SDS_P2;PMS_P1;PMS_P2;Temp;Humidity;BMP_temperature;BMP_pressure;BME280_temperature;BME280_humidity;BME280_pressure;Samples;Min_cycle;Max_cycle;Signal;HPM_P1;HPM_P2
2021/12/30 00:00:36;;;;;;;56.45;8.32;;;10.20;99.90;;;;;;5072402;28;20024;-69
2021/12/30 00:03:02;;;;;;;45.97;9.98;;;10.20;99.90;;;;;;5072731;28;20025;-69
2021/12/30 00:05:28;;;;;;;59.72;8.15;;;10.30;99.90;;;;;;5072920;28;20043;-69
2021/12/30 00:07:53;;;;;;;50.53;7.25;;;10.30;99.90;;;;;;5072411;28;20016;-69
2021/12/30 00:10:19;;;;;;;49.10;8.88;;;10.40;99.90;;;;;;5072961;28;20031;-69
2021/12/30 00:12:46;;;;;;;55.35;8.82;;;10.40;99.90;;;;;;5073064;28;20052;-68
2021/12/30 00:15:13;;;;;;;64.85;11.10;;;10.50;99.90;;;;;;5071771;28;20033;-70
2021/12/30 00:17:38;;;;;;;54.70;10.52;;;10.60;99.90;;;;;;5072520;28;20024;-69
2021/12/30 00:20:09;;;;;;;48.45;10.52;;;10.60;99.90;;;;;;5072147;28;20035;-69
2021/12/30 00:22:37;;;;;;;58.67;9.02;;;10.70;99.90;;;;;;5071909;28;20095;-69
2021/12/30 00:25:03;;;;;;;61.70;9.20;;;10.70;99.90;;;;;;5071187;28;20029;-69
2021/12/30 00:27:29;;;;;;;59.15;9.93;;;10.70;99.90;;;;;;5072520;28;20025;-69
2021/12/30 00:29:54;;;;;;;43.78;10.48;;;10.70;99.90;;;;;;5071578;28;20032;-69
2021/12/30 00:32:20;;;;;;;60.22;9.63;;;10.80;99.90;;;;;;5071866;28;20020;-69
2021/12/30 00:34:46;;;;;;;54.58;8.13;;;10.80;99.90;;;;;;5072274;28;20036;-69
2021/12/30 00:37:12;;;;;;;43.00;8.27;;;10.90;99.90;;;;;;5071323;28;20020;-68
2021/12/30 00:39:37;;;;;;;48.35;10.30;;;11.00;99.90;;;;;;5072492;28;20104;-69
2021/12/30 00:42:03;;;;;;;54.10;8.70;;;11.00;99.90;;;;;;5072087;28;20021;-70
2021/12/30 00:44:29;;;;;;;57.10;10.80;;;11.00;99.90;;;;;;5071376;28;20415;-69
2021/12/30 00:46:57;;;;;;;53.28;9.07;;;11.10;99.90;;;;;;5072285;28;20050;-70
2021/12/30 00:49:22;;;;;;;58.10;10.75;;;11.10;99.90;;;;;;5071139;28;20108;-69
2021/12/30 00:51:48;;;;;;;51.83;10.57;;;11.10;99.90;;;;;;5071905;28;20112;-69
2021/12/30 00:54:15;;;;;;;48.55;11.25;;;11.10;99.90;;;;;;5072614;28;20048;-69
2021/12/30 00:56:41;;;;;;;40.55;8.65;;;11.10;99.90;;;;;;5071648;28;20036;-70
2021/12/30 00:59:07;;;;;;;45.75;9.70;;;11.20;99.90;;;;;;5071672;28;20056;-69
2021/12/30 01:01:32;;;;;;;42.53;8.88;;;11.20;99.90;;;;;;5072257;28;20073;-70
2021/12/30 01:03:58;;;;;;;54.05;9.85;;;11.20;99.90;;;;;;5072061;28;20033;-69
2021/12/30 01:06:23;;;;;;;42.88;10.63;;;11.20;99.90;;;;;;5071979;28;20032;-68
2021/12/30 01:08:49;;;;;;;38.05;9.25;;;11.30;99.90;;;;;;5071970;28;20459;-70
2021/12/30 01:11:14;;;;;;;36.40;8.95;;;11.40;99.90;;;;;;5070979;28;20109;-70
2021/12/30 01:13:44;;;;;;;38.05;10.05;;;11.40;99.90;;;;;;5072004;28;20456;-70
2021/12/30 01:16:19;;;;;;;41.75;10.45;;;11.50;99.90;;;;;;5071711;28;20043;-69
2021/12/30 01:18:56;;;;;;;40.92;10.55;;;11.40;99.90;;;;;;5071408;28;20020;-69
2021/12/30 01:21:25;;;;;;;36.25;10.55;;;11.50;99.90;;;;;;5071813;28;20110;-69
2021/12/30 01:23:51;;;;;;;44.17;10.00;;;11.50;99.90;;;;;;5071871;28;20052;-70
2021/12/30 01:26:17;;;;;;;44.72;13.63;;;11.60;99.90;;;;;;5070884;28;20384;-69
2021/12/30 01:28:42;;;;;;;22.15;8.30;;;11.60;99.90;;;;;;5071817;28;20028;-69
2021/12/30 01:31:09;;;;;;;28.05;11.48;;;11.70;99.90;;;;;;5071543;28;20025;-69
2021/12/30 01:33:38;;;;;;;35.13;12.30;;;11.70;99.90;;;;;;5071266;28;20025;-69
2021/12/30 01:36:04;;;;;;;34.13;12.30;;;11.70;99.90;;;;;;5071772;28;20040;-70
2021/12/30 01:38:29;;;;;;;30.00;11.18;;;11.80;99.90;;;;;;5075461;28;20101;-70
2021/12/30 01:40:59;;;;;;;40.13;10.93;;;11.80;99.90;;;;;;5074580;28;20162;-70
2021/12/30 01:43:25;;;;;;;31.77;11.90;;;11.80;99.90;;;;;;5075374;28;20028;-69
2021/12/30 01:45:51;;;;;;;31.58;11.07;;;11.80;99.90;;;;;;5075077;28;20039;-69
2021/12/30 01:48:17;;;;;;;27.92;11.40;;;11.80;99.90;;;;;;5074950;28;20487;-69
2021/12/30 01:50:43;;;;;;;23.40;10.35;;;11.80;99.90;;;;;;5075661;28;20029;-69
2021/12/30 01:53:09;;;;;;;31.95;10.98;;;11.80;99.90;;;;;;5073787;28;20036;-69
2021/12/30 01:55:36;;;;;;;22.27;9.98;;;11.80;99.90;;;;;;5074949;28;20495;-69
2021/12/30 01:58:06;;;;;;;31.50;9.68;;;11.90;99.90;;;;;;5075159;28;20052;-71
2021/12/30 02:00:33;;;;;;;24.17;9.60;;;11.90;99.90;;;;;;5074548;28;20035;-71
2021/12/30 02:03:00;;;;;;;21.05;9.73;;;11.90;99.90;;;;;;5075066;28;20271;-69
2021/12/30 02:05:26;;;;;;;22.17;9.63;;;11.90;99.90;;;;;;5074498;28;20485;-70
2021/12/30 02:07:52;;;;;;;27.13;9.88;;;11.90;99.90;;;;;;5074548;28;20078;-68
2021/12/30 02:10:17;;;;;;;23.15;10.00;;;11.90;99.90;;;;;;5074513;28;20056;-69
2021/12/30 02:12:46;;;;;;;25.77;10.13;;;11.90;99.90;;;;;;5075008;28;20032;-69
2021/12/30 02:15:14;;;;;;;19.73;9.57;;;11.80;99.90;;;;;;5073663;28;20040;-70
2021/12/30 02:17:40;;;;;;;27.63;10.20;;;11.90;99.90;;;;;;5074519;28;20072;-69
2021/12/30 02:20:10;;;;;;;26.90;9.63;;;11.90;99.90;;;;;;5074493;28;20032;-70
2021/12/30 02:22:36;;;;;;;21.23;10.38;;;12.00;99.90;;;;;;5074147;28;20024;-69
2021/12/30 02:25:04;;;;;;;21.10;9.25;;;12.00;99.90;;;;;;5074641;28;20111;-69
2021/12/30 02:27:30;;;;;;;15.32;8.93;;;12.30;99.90;;;;;;5074701;28;20036;-69
2021/12/30 02:29:55;;;;;;;21.58;9.27;;;12.10;99.90;;;;;;5073833;28;20375;-70
2021/12/30 02:32:22;;;;;;;16.85;9.68;;;12.20;99.90;;;;;;5074411;28;20109;-69
2021/12/30 02:34:49;;;;;;;17.00;9.48;;;12.20;99.90;;;;;;5074919;28;20102;-69
2021/12/30 02:37:19;;;;;;;25.50;10.15;;;12.20;99.90;;;;;;5073947;28;20025;-68
2021/12/30 02:39:51;;;;;;;;;;;12.20;99.90;;;;;;5074869;28;20108;-70
2021/12/30 02:42:19;;;;;;;15.27;9.40;;;12.20;99.90;;;;;;5073491;28;19998;-69
2021/12/30 02:44:44;;;;;;;14.30;9.23;;;12.20;99.90;;;;;;5074307;28;20055;-69
2021/12/30 02:47:14;;;;;;;12.82;9.25;;;12.10;99.90;;;;;;5073735;28;20044;-69
2021/12/30 02:49:40;;;;;;;18.25;8.50;;;12.10;99.90;;;;;;5073062;28;20034;-70
2021/12/30 02:52:06;;;;;;;15.55;8.50;;;12.10;99.90;;;;;;5073540;28;20532;-69
2021/12/30 02:54:31;;;;;;;14.32;8.50;;;12.10;99.90;;;;;;5073891;28;20181;-70
2021/12/30 02:56:57;;;;;;;11.65;8.18;;;12.20;99.90;;;;;;5073194;28;20085;-69
2021/12/30 02:59:23;;;;;;;13.10;8.30;;;12.20;99.90;;;;;;5073737;28;20028;-69
2021/12/30 03:01:49;;;;;;;12.57;6.85;;;12.20;99.90;;;;;;5073898;28;20024;-69
2021/12/30 03:04:15;;;;;;;7.07;6.07;;;12.20;99.90;;;;;;5073103;28;20052;-70
2021/12/30 03:06:44;;;;;;;11.52;7.03;;;12.30;99.90;;;;;;5073914;28;20472;-70
2021/12/30 03:09:09;;;;;;;12.38;6.90;;;12.30;99.90;;;;;;5073363;28;20420;-69
2021/12/30 03:11:35;;;;;;;11.57;8.15;;;12.40;99.90;;;;;;5078143;28;20028;-69
2021/12/30 03:14:01;;;;;;;13.10;9.02;;;12.40;99.90;;;;;;5074446;28;20043;-70
2021/12/30 03:16:31;;;;;;;14.30;11.15;;;12.50;99.90;;;;;;5073162;28;20449;-69
2021/12/30 03:18:58;;;;;;;13.27;9.45;;;12.40;99.90;;;;;;5073119;28;20035;-70
2021/12/30 03:21:24;;;;;;;12.75;9.95;;;12.50;99.90;;;;;;5073343;28;20052;-70
2021/12/30 03:23:51;;;;;;;19.67;13.20;;;12.50;99.90;;;;;;5073523;28;20016;-70
2021/12/30 03:26:17;;;;;;;20.83;13.20;;;12.50;99.90;;;;;;5072433;28;20103;-70
2021/12/30 03:28:43;;;;;;;20.83;12.95;;;12.60;99.90;;;;;;5073408;28;20031;-69
2021/12/30 03:31:12;;;;;;;17.92;12.50;;;12.50;99.90;;;;;;5072359;28;20033;-69
2021/12/30 03:33:39;;;;;;;13.65;9.65;;;12.50;99.90;;;;;;5073285;28;20029;-69
2021/12/30 03:36:08;;;;;;;14.18;9.10;;;12.60;99.90;;;;;;5072792;28;20036;-68
2021/12/30 03:38:38;;;;;;;16.02;8.60;;;12.50;99.90;;;;;;5072301;28;20483;-69
2021/12/30 03:41:06;;;;;;;10.82;8.45;;;12.50;99.90;;;;;;5072921;28;20381;-69
2021/12/30 03:43:32;;;;;;;13.00;9.07;;;12.50;99.90;;;;;;5073019;28;20028;-70
2021/12/30 03:45:58;;;;;;;14.50;9.98;;;12.50;99.90;;;;;;5072204;28;20178;-69
2021/12/30 03:48:32;;;;;;;14.32;10.23;;;12.50;99.90;;;;;;5072759;28;20025;-69
2021/12/30 03:50:57;;;;;;;14.65;9.25;;;12.50;99.90;;;;;;5072915;28;20060;-69
2021/12/30 03:53:23;;;;;;;14.82;9.35;;;12.50;99.90;;;;;;5071610;28;20507;-71
2021/12/30 03:55:51;;;;;;;10.52;8.30;;;12.50;99.90;;;;;;5072839;28;20032;-69
2021/12/30 03:58:17;;;;;;;12.55;7.75;;;12.50;99.90;;;;;;5072627;28;20032;-69
2021/12/30 04:00:43;;;;;;;14.73;8.70;;;12.50;99.90;;;;;;5072266;28;20021;-69
2021/12/30 04:03:08;;;;;;;8.98;6.70;;;12.50;99.90;;;;;;5072720;28;20024;-69
2021/12/30 04:05:34;;;;;;;13.48;7.80;;;12.50;99.90;;;;;;5072902;28;20119;-69
2021/12/30 04:08:02;;;;;;;8.30;4.93;;;12.50;99.90;;;;;;5072105;28;20017;-69
2021/12/30 04:10:28;;;;;;;10.00;7.07;;;12.50;99.90;;;;;;5072741;28;20033;-69
2021/12/30 04:12:54;;;;;;;9.48;6.90;;;12.50;99.90;;;;;;5072442;28;20387;-69
2021/12/30 04:15:20;;;;;;;11.93;5.75;;;12.50;99.90;;;;;;5071667;28;20037;-69
2021/12/30 04:17:46;;;;;;;11.02;6.53;;;12.40;99.90;;;;;;5072638;28;20025;-69
2021/12/30 04:20:14;;;;;;;11.05;7.20;;;12.50;99.90;;;;;;5072075;28;20034;-69
2021/12/30 04:22:41;;;;;;;13.55;6.90;;;12.40;99.90;;;;;;5071858;28;20024;-69
2021/12/30 04:25:11;;;;;;;10.65;6.40;;;12.40;99.90;;;;;;5072095;28;20373;-69
2021/12/30 04:27:37;;;;;;;10.55;6.68;;;12.40;99.90;;;;;;5071702;28;20454;-70
2021/12/30 04:30:07;;;;;;;13.98;6.13;;;12.40;99.90;;;;;;5072528;28;20064;-70
2021/12/30 04:32:32;;;;;;;11.98;6.30;;;12.40;99.90;;;;;;5072091;28;20017;-69
2021/12/30 04:34:58;;;;;;;15.70;7.32;;;12.40;99.90;;;;;;5071616;28;20047;-70
2021/12/30 04:37:23;;;;;;;12.10;5.60;;;12.30;99.90;;;;;;5071932;28;20107;-69
2021/12/30 04:39:49;;;;;;;8.60;4.82;;;12.40;99.90;;;;;;5072333;28;20021;-69
2021/12/30 04:42:14;;;;;;;11.98;6.40;;;12.30;99.90;;;;;;5071230;28;20016;-70
2021/12/30 04:44:40;;;;;;;10.95;5.50;;;12.40;99.90;;;;;;5072416;28;20058;-69
2021/12/30 04:47:06;;;;;;;11.77;4.10;;;12.30;99.90;;;;;;5072043;28;20139;-69
2021/12/30 04:49:32;;;;;;;8.20;4.80;;;12.30;99.90;;;;;;5071572;28;20017;-69
2021/12/30 04:51:59;;;;;;;13.38;6.93;;;12.30;99.90;;;;;;5071960;28;20020;-70
2021/12/30 04:54:28;;;;;;;10.60;5.25;;;12.30;99.90;;;;;;5071567;28;20074;-70
2021/12/30 04:56:53;;;;;;;11.38;6.43;;;12.30;99.90;;;;;;5071681;28;20025;-70
2021/12/30 04:59:19;;;;;;;10.70;5.38;;;12.30;99.90;;;;;;5071962;28;20166;-70
2021/12/30 05:01:44;;;;;;;11.52;5.05;;;12.30;99.90;;;;;;5072215;28;20101;-69
2021/12/30 05:04:10;;;;;;;7.53;4.65;;;12.30;99.90;;;;;;5069674;28;20391;-69
2021/12/30 05:06:36;;;;;;;9.52;4.63;;;12.30;99.90;;;;;;5071853;28;20028;-68
2021/12/30 05:09:03;;;;;;;19.58;6.97;;;12.40;99.90;;;;;;5071978;28;20020;-69
2021/12/30 05:11:29;;;;;;;15.68;6.72;;;12.40;99.90;;;;;;5073087;28;20052;-71
2021/12/30 05:13:54;;;;;;;16.27;6.50;;;12.30;99.90;;;;;;5076098;28;20024;-70
2021/12/30 05:16:20;;;;;;;13.75;6.18;;;12.30;99.90;;;;;;5075352;28;20032;-70
2021/12/30 05:18:48;;;;;;;13.98;6.15;;;12.40;99.90;;;;;;5074913;28;20021;-69
2021/12/30 05:21:13;;;;;;;15.32;6.10;;;12.40;99.90;;;;;;5075680;28;20025;-69
2021/12/30 05:23:39;;;;;;;13.13;5.18;;;12.40;99.90;;;;;;5075641;28;20077;-69
2021/12/30 05:26:04;;;;;;;10.35;4.30;;;12.40;99.90;;;;;;5075195;28;20021;-69
2021/12/30 05:28:30;;;;;;;11.30;4.97;;;12.40;99.90;;;;;;5075789;28;20035;-69
2021/12/30 05:30:56;;;;;;;11.05;5.28;;;12.40;99.90;;;;;;5074894;28;20096;-69
2021/12/30 05:33:22;;;;;;;8.68;4.47;;;12.40;99.90;;;;;;5075310;28;20024;-69
2021/12/30 05:35:47;;;;;;;7.75;4.28;;;12.50;99.90;;;;;;5075859;28;20032;-69
2021/12/30 05:38:16;;;;;;;7.45;4.07;;;12.50;99.90;;;;;;5074267;28;20017;-69
2021/12/30 05:40:42;;;;;;;12.23;3.70;;;12.50;99.90;;;;;;5075617;28;20074;-69
2021/12/30 05:43:08;;;;;;;6.95;2.97;;;12.50;99.90;;;;;;5075211;28;20029;-69
2021/12/30 05:45:34;;;;;;;7.45;2.63;;;12.50;99.90;;;;;;5074560;28;20040;-69
2021/12/30 05:47:59;;;;;;;9.77;2.85;;;12.60;99.90;;;;;;5075363;28;20455;-69
2021/12/30 05:50:28;;;;;;;4.18;2.20;;;12.60;99.90;;;;;;5085423;28;20020;-70
2021/12/30 05:52:54;;;;;;;5.43;2.47;;;12.50;99.90;;;;;;5094017;28;20078;-70
2021/12/30 05:55:20;;;;;;;9.35;2.90;;;12.50;99.90;;;;;;5076868;28;20441;-69
2021/12/30 05:57:45;;;;;;;4.72;2.53;;;12.60;99.90;;;;;;5076781;28;20017;-70
2021/12/30 06:00:15;;;;;;;5.47;1.83;;;12.60;99.90;;;;;;5073197;28;20391;-70
2021/12/30 06:02:41;;;;;;;7.93;2.38;;;12.50;99.90;;;;;;5073552;28;20029;-70
2021/12/30 06:05:07;;;;;;;7.55;1.90;;;12.50;99.90;;;;;;5073384;28;20020;-70
2021/12/30 06:07:32;;;;;;;4.88;1.90;;;12.50;99.90;;;;;;5073145;28;20082;-69
2021/12/30 06:09:58;;;;;;;2.58;1.83;;;12.50;99.90;;;;;;5073797;28;20433;-71
2021/12/30 06:12:24;;;;;;;2.58;1.45;;;12.50;99.90;;;;;;5075827;28;20066;-70
2021/12/30 06:14:49;;;;;;;4.97;2.13;;;12.50;99.90;;;;;;5073096;28;20020;-69
2021/12/30 06:17:18;;;;;;;7.57;1.98;;;12.50;99.90;;;;;;5073704;28;20029;-69
2021/12/30 06:19:43;;;;;;;5.97;2.70;;;12.50;99.90;;;;;;5073918;28;20048;-70
2021/12/30 06:22:10;;;;;;;3.90;2.08;;;12.50;99.90;;;;;;5072623;28;20048;-69
2021/12/30 06:24:35;;;;;;;6.20;2.75;;;12.50;99.90;;;;;;5077061;28;20384;-70
2021/12/30 06:27:01;;;;;;;2.78;1.88;;;12.50;99.90;;;;;;5073520;28;20029;-69
2021/12/30 06:29:27;;;;;;;4.40;2.28;;;12.50;99.90;;;;;;5076238;28;20029;-70
2021/12/30 06:31:52;;;;;;;6.93;3.17;;;12.50;99.90;;;;;;5073843;28;20020;-70
2021/12/30 06:34:18;;;;;;;5.32;2.65;;;12.50;99.90;;;;;;5075603;28;20542;-70
2021/12/30 06:36:44;;;;;;;5.10;2.33;;;12.50;99.90;;;;;;5085853;28;20032;-70
2021/12/30 06:39:09;;;;;;;4.75;1.80;;;12.50;99.90;;;;;;5093659;28;20467;-69
2021/12/30 06:41:35;;;;;;;8.35;2.65;;;12.40;99.90;;;;;;5093414;28;20028;-69
2021/12/30 06:44:01;;;;;;;3.35;2.30;;;12.50;99.90;;;;;;5093999;28;20057;-69
2021/12/30 06:46:26;;;;;;;2.28;1.33;;;12.40;99.90;;;;;;5095303;28;20016;-69
2021/12/30 06:48:52;;;;;;;3.80;1.80;;;12.40;99.90;;;;;;5075336;28;20023;-69
2021/12/30 06:51:19;;;;;;;5.28;2.05;;;12.40;99.90;;;;;;5092912;28;20046;-69
2021/12/30 06:53:45;;;;;;;5.50;2.08;;;12.50;99.90;;;;;;5094936;28;20348;-69
2021/12/30 06:56:11;;;;;;;5.28;2.05;;;12.50;99.90;;;;;;5075345;28;20078;-69
2021/12/30 06:58:37;;;;;;;8.80;2.50;;;12.50;99.90;;;;;;5092851;28;20442;-69
2021/12/30 07:01:03;;;;;;;8.48;3.03;;;12.50;99.90;;;;;;5093265;28;20019;-70
2021/12/30 07:03:29;;;;;;;5.07;2.90;;;12.50;99.90;;;;;;5092742;28;20491;-69
2021/12/30 07:05:55;;;;;;;8.43;4.35;;;12.50;99.90;;;;;;5090772;28;20089;-69
2021/12/30 07:08:22;;;;;;;8.13;4.43;;;12.60;99.90;;;;;;5093224;28;20073;-70
2021/12/30 07:10:48;;;;;;;8.48;5.72;;;12.60;99.90;;;;;;5091774;28;20390;-70
2021/12/30 07:13:13;;;;;;;17.98;7.35;;;12.50;99.90;;;;;;5095865;28;20107;-71
2021/12/30 07:15:39;;;;;;;9.40;7.72;;;12.60;99.90;;;;;;5073466;28;20032;-71
2021/12/30 07:18:05;;;;;;;11.65;7.50;;;12.60;99.90;;;;;;5072086;28;20349;-69
2021/12/30 07:20:31;;;;;;;16.38;8.32;;;12.60;99.90;;;;;;5073078;28;20422;-70
2021/12/30 07:22:56;;;;;;;21.83;8.93;;;12.60;99.90;;;;;;5073496;28;20040;-70
2021/12/30 07:25:22;;;;;;;11.15;5.65;;;12.60;99.90;;;;;;5080465;28;20024;-70
2021/12/30 07:27:49;;;;;;;12.48;6.80;;;12.60;99.90;;;;;;5072665;28;20024;-71
2021/12/30 07:30:17;;;;;;;22.17;8.52;;;12.60;99.90;;;;;;5082799;28;20035;-71
2021/12/30 07:32:43;;;;;;;7.70;5.55;;;12.60;99.90;;;;;;5093820;28;20020;-70
2021/12/30 07:35:08;;;;;;;16.65;7.20;;;12.70;99.90;;;;;;5091876;28;20039;-71
2021/12/30 07:37:34;;;;;;;19.17;6.30;;;12.60;99.90;;;;;;5092346;28;20020;-70
2021/12/30 07:40:00;;;;;;;17.60;6.60;;;12.70;99.90;;;;;;5095188;28;20023;-70
2021/12/30 07:42:25;;;;;;;16.27;5.35;;;12.70;99.90;;;;;;5090194;28;20027;-70
2021/12/30 07:44:51;;;;;;;27.17;7.70;;;12.70;99.90;;;;;;5089347;28;20022;-70
2021/12/30 07:47:17;;;;;;;22.58;6.82;;;12.70;99.90;;;;;;5092467;28;20028;-70
2021/12/30 07:49:42;;;;;;;15.68;5.15;;;12.70;99.90;;;;;;5092733;28;20490;-71
2021/12/30 07:52:08;;;;;;;16.33;5.05;;;12.80;99.90;;;;;;5087427;28;20029;-71
2021/12/30 07:54:34;;;;;;;27.80;5.60;;;12.80;99.90;;;;;;5091597;28;20062;-71
2021/12/30 07:57:00;;;;;;;16.90;5.53;;;12.80;99.90;;;;;;5090050;28;20547;-72
2021/12/30 07:59:26;;;;;;;17.80;4.97;;;12.80;99.90;;;;;;5091296;28;20044;-72
2021/12/30 08:01:52;;;;;;;13.82;4.38;;;12.80;99.90;;;;;;5084475;28;20408;-71
2021/12/30 08:04:17;;;;;;;13.73;3.90;;;12.80;99.90;;;;;;5091046;28;20016;-71
2021/12/30 08:06:43;;;;;;;23.55;5.15;;;12.80;99.90;;;;;;5095766;28;20073;-71
2021/12/30 08:09:08;;;;;;;12.60;3.83;;;12.80;99.90;;;;;;5113547;28;20090;-73
2021/12/30 08:11:35;;;;;;;28.50;7.40;;;12.80;99.90;;;;;;5113519;28;20408;-71
2021/12/30 08:14:00;;;;;;;28.00;5.57;;;12.80;99.90;;;;;;5112725;28;20023;-71
2021/12/30 08:16:29;;;;;;;19.83;4.60;;;12.80;99.90;;;;;;5113071;28;20042;-71
2021/12/30 08:18:55;;;;;;;13.55;4.43;;;12.70;99.90;;;;;;5113606;28;20028;-71
2021/12/30 08:21:22;;;;;;;24.42;5.30;;;12.80;99.90;;;;;;5112480;28;20028;-73
2021/12/30 08:23:48;;;;;;;25.55;5.35;;;12.70;99.90;;;;;;5113842;28;20108;-71
2021/12/30 08:26:14;;;;;;;28.05;6.20;;;12.80;99.90;;;;;;5112984;28;20038;-71
2021/12/30 08:28:40;;;;;;;19.70;5.13;;;12.80;99.90;;;;;;5112838;28;20367;-71
2021/12/30 08:31:06;;;;;;;20.63;4.95;;;12.80;99.90;;;;;;5112603;28;20096;-71
2021/12/30 08:33:32;;;;;;;22.48;5.38;;;12.80;99.90;;;;;;5077553;28;20030;-71
2021/12/30 08:35:58;;;;;;;23.45;5.82;;;12.90;99.90;;;;;;5089534;28;20513;-71
2021/12/30 08:38:24;;;;;;;24.45;5.50;;;12.90;99.90;;;;;;5092223;28;20024;-72
2021/12/30 08:40:49;;;;;;;23.70;5.47;;;12.90;99.90;;;;;;5091827;28;20047;-70
2021/12/30 08:43:16;;;;;;;21.40;4.70;;;12.90;99.90;;;;;;5092463;28;20030;-72
2021/12/30 08:45:42;;;;;;;30.83;5.90;;;12.90;99.90;;;;;;5082725;28;20476;-71
2021/12/30 08:48:08;;;;;;;31.08;5.82;;;13.00;99.90;;;;;;5075835;28;20031;-73
2021/12/30 08:50:35;;;;;;;21.15;5.97;;;13.00;99.90;;;;;;5076619;28;20035;-72
2021/12/30 08:53:01;;;;;;;17.48;4.70;;;13.10;99.90;;;;;;5076367;28;20081;-70
2021/12/30 08:55:26;;;;;;;25.85;6.45;;;13.10;99.90;;;;;;5075369;28;20536;-72
2021/12/30 08:57:52;;;;;;;12.18;5.13;;;13.10;99.90;;;;;;5076478;28;20092;-72
2021/12/30 09:00:24;;;;;;;17.73;4.97;;;13.20;99.90;;;;;;5079149;28;20064;-70
2021/12/30 09:02:55;;;;;;;24.85;5.47;;;13.20;99.90;;;;;;5091372;28;20428;-71
2021/12/30 09:05:21;;;;;;;25.98;5.93;;;13.20;99.90;;;;;;5105575;28;20161;-71
2021/12/30 09:07:47;;;;;;;23.95;5.03;;;13.30;99.90;;;;;;5103880;28;20032;-72
2021/12/30 09:10:15;;;;;;;13.05;4.10;;;13.40;99.90;;;;;;5103469;28;20117;-73
2021/12/30 09:12:43;;;;;;;20.58;5.03;;;13.30;99.90;;;;;;5113189;28;20471;-70
2021/12/30 09:15:11;;;;;;;10.73;3.67;;;13.30;99.90;;;;;;5090274;28;20517;-73
2021/12/30 09:17:38;;;;;;;22.20;4.90;;;13.30;99.90;;;;;;5091097;28;20245;-72
2021/12/30 09:20:06;;;;;;;21.75;4.45;;;13.40;99.90;;;;;;5105397;28;20064;-73
2021/12/30 09:22:32;;;;;;;21.38;4.47;;;13.40;99.90;;;;;;5094025;28;20031;-72
2021/12/30 09:24:58;;;;;;;22.08;4.20;;;13.40;99.90;;;;;;5104249;28;20402;-72
2021/12/30 09:27:23;;;;;;;23.02;5.05;;;13.40;99.90;;;;;;5093446;28;20029;-72
2021/12/30 09:29:49;;;;;;;25.35;4.05;;;13.50;99.90;;;;;;5108280;28;20382;-73
2021/12/30 09:32:15;;;;;;;18.25;4.43;;;13.50;99.90;;;;;;5106398;28;20028;-73
2021/12/30 09:34:40;;;;;;;13.82;4.15;;;13.50;99.90;;;;;;5104657;28;20028;-73
2021/12/30 09:37:09;;;;;;;19.55;3.80;;;13.60;99.90;;;;;;5100577;28;20034;-73
2021/12/30 09:39:36;;;;;;;15.45;3.60;;;13.60;99.90;;;;;;5107064;28;20092;-74
2021/12/30 09:42:02;;;;;;;16.52;3.83;;;13.60;99.90;;;;;;5088240;28;20028;-72
2021/12/30 09:44:28;;;;;;;20.17;3.47;;;13.60;99.90;;;;;;5095657;28;20070;-73
2021/12/30 09:46:54;;;;;;;16.25;4.25;;;13.60;99.90;;;;;;5088365;28;20491;-72
2021/12/30 09:49:22;;;;;;;18.27;4.75;;;13.60;99.90;;;;;;5097127;28;20028;-72
2021/12/30 09:51:48;;;;;;;13.98;3.35;;;13.60;99.90;;;;;;5096391;28;20036;-73
2021/12/30 09:54:14;;;;;;;19.45;3.65;;;13.60;99.90;;;;;;5100992;28;20092;-74
2021/12/30 09:56:41;;;;;;;21.30;3.83;;;13.60;99.90;;;;;;5104098;28;20028;-74
2021/12/30 09:59:07;;;;;;;17.73;4.63;;;13.50;99.90;;;;;;5098636;28;20073;-73
2021/12/30 10:01:36;;;;;;;20.80;4.38;;;13.50;99.90;;;;;;5101685;28;20024;-72
2021/12/30 10:04:04;;;;;;;15.82;3.88;;;13.50;99.90;;;;;;5100812;28;20463;-73
2021/12/30 10:06:31;;;;;;;18.85;3.88;;;13.40;99.90;;;;;;5099525;28;20031;-74
2021/12/30 10:09:03;;;;;;;14.90;4.53;;;13.40;99.90;;;;;;5102550;28;20089;-74
2021/12/30 10:11:28;;;;;;;11.43;3.67;;;13.40;99.90;;;;;;5102785;28;20024;-74
2021/12/30 10:14:03;;;;;;;16.92;4.80;;;13.40;99.90;;;;;;5106215;28;20360;-73
2021/12/30 10:16:29;;;;;;;14.32;4.00;;;13.50;99.90;;;;;;5103193;28;20047;-74
2021/12/30 10:19:05;;;;;;;20.65;3.92;;;13.40;99.90;;;;;;5108122;28;20024;-74
2021/12/30 10:21:36;;;;;;;10.23;3.55;;;13.40;99.90;;;;;;5095522;28;20035;-73
2021/12/30 10:24:07;;;;;;;14.35;3.45;;;13.50;99.90;;;;;;5080788;28;20433;-73
2021/12/30 10:26:51;;;;;;;13.98;3.83;;;13.40;99.90;;;;;;5098496;28;20035;-73
2021/12/30 10:29:16;;;;;;;13.02;2.60;;;13.50;99.90;;;;;;5104064;28;20076;-73
2021/12/30 10:31:43;;;;;;;14.60;3.10;;;13.40;99.90;;;;;;5108025;28;20032;-73
2021/12/30 10:34:11;;;;;;;7.90;2.80;;;13.50;99.90;;;;;;5106503;28;20046;-74
2021/12/30 10:36:43;;;;;;;8.43;3.15;;;13.40;99.90;;;;;;5109904;28;20031;-73
2021/12/30 10:39:31;;;;;;;23.55;4.55;;;13.40;99.90;;;;;;5105388;28;20497;-73
2021/12/30 10:42:05;;;;;;;9.70;3.33;;;13.40;99.90;;;;;;5102440;28;20035;-73
2021/12/30 10:44:57;;;;;;;15.32;4.05;;;13.40;99.90;;;;;;5100090;28;20500;-74
2021/12/30 10:47:28;;;;;;;14.13;3.75;;;13.40;99.90;;;;;;5099886;28;20484;-74
2021/12/30 10:50:05;;;;;;;16.10;4.80;;;13.40;99.90;;;;;;5109209;28;20081;-74
2021/12/30 10:52:32;;;;;;;14.20;5.55;;;13.40;99.90;;;;;;5105071;28;20453;-75
2021/12/30 10:55:01;;;;;;;8.77;3.30;;;13.40;99.90;;;;;;5102160;28;20047;-73
2021/12/30 10:57:29;;;;;;;13.65;4.30;;;13.40;99.90;;;;;;5099890;28;20039;-72
2021/12/30 10:59:55;;;;;;;14.35;5.07;;;13.40;99.90;;;;;;5093714;28;20123;-73
2021/12/30 11:02:23;;;;;;;14.73;4.30;;;13.30;99.90;;;;;;5083909;28;20103;-73
2021/12/30 11:05:02;;;;;;;12.40;4.32;;;13.30;99.90;;;;;;5096524;28;20031;-74
2021/12/30 11:07:46;;;;;;;17.52;4.35;;;13.30;99.90;;;;;;5097409;28;20507;-73
2021/12/30 11:10:13;;;;;;;17.48;4.22;;;13.30;99.90;;;;;;5098945;28;20028;-72
2021/12/30 11:12:44;;;;;;;14.48;5.10;;;13.30;99.90;;;;;;5102922;28;20026;-74
2021/12/30 11:15:25;;;;;;;11.43;4.38;;;13.30;99.90;;;;;;5097865;28;20088;-73
2021/12/30 11:17:50;;;;;;;;;;;13.20;99.90;;;;;;5105394;28;20030;-73
2021/12/30 11:20:19;;;;;;;15.20;5.10;;;13.30;99.90;;;;;;5099825;28;19904;-73
2021/12/30 11:22:46;;;;;;;12.88;5.28;;;13.30;99.90;;;;;;5103832;28;20023;-73
2021/12/30 11:25:14;;;;;;;26.98;4.93;;;13.30;99.90;;;;;;5101842;28;20028;-73
2021/12/30 11:27:40;;;;;;;13.88;4.22;;;13.30;99.90;;;;;;5105369;28;20036;-73
2021/12/30 11:30:15;;;;;;;16.73;5.22;;;13.30;99.90;;;;;;5101825;28;20107;-72
2021/12/30 11:32:43;;;;;;;25.30;5.80;;;13.30;99.90;;;;;;5100008;28;20032;-72
2021/12/30 11:35:09;;;;;;;15.80;6.20;;;13.40;99.90;;;;;;5104792;28;20039;-73
2021/12/30 11:37:35;;;;;;;18.70;5.82;;;13.40;99.90;;;;;;5108039;28;20051;-72
2021/12/30 11:40:13;;;;;;;12.80;4.32;;;13.40;99.90;;;;;;5105407;28;20024;-73
2021/12/30 11:42:47;;;;;;;14.82;5.47;;;13.30;99.90;;;;;;5093485;28;20028;-74
2021/12/30 11:45:35;;;;;;;8.93;4.05;;;13.40;99.90;;;;;;5100862;28;20039;-73
2021/12/30 11:48:04;;;;;;;12.45;3.90;;;13.40;99.90;;;;;;5101697;28;20106;-73
2021/12/30 11:50:38;;;;;;;8.90;3.60;;;13.40;99.90;;;;;;5113464;28;20039;-73
2021/12/30 11:53:25;;;;;;;12.02;3.95;;;13.50;99.90;;;;;;5113477;28;20040;-72
2021/12/30 11:55:59;;;;;;;11.38;4.40;;;13.50;99.90;;;;;;5113715;28;20036;-73
2021/12/30 12:01:31;;;;;;;13.77;4.22;;;13.40;99.90;;;;;;5110424;27;20414;-73
2021/12/30 12:04:12;;;;;;;9.63;4.20;;;13.40;99.90;;;;;;5110452;28;20387;-73
2021/12/30 12:06:55;;;;;;;11.07;4.22;;;13.40;99.90;;;;;;5109831;28;20020;-73
2021/12/30 12:09:22;;;;;;;16.95;5.20;;;13.40;99.90;;;;;;5110199;28;20032;-73
2021/12/30 12:11:59;;;;;;;12.77;3.17;;;13.40;99.90;;;;;;5109661;28;20069;-74
2021/12/30 12:14:26;;;;;;;14.20;4.75;;;13.40;99.90;;;;;;5110309;28;20070;-73
2021/12/30 12:17:12;;;;;;;7.97;4.50;;;13.40;99.90;;;;;;5110687;28;20028;-74
2021/12/30 12:19:47;;;;;;;11.05;3.80;;;13.50;99.90;;;;;;5109606;28;20024;-73
2021/12/30 12:22:18;;;;;;;11.50;6.18;;;13.50;99.90;;;;;;5110140;28;20030;-74
2021/12/30 12:24:49;;;;;;;6.80;5.22;;;13.50;99.90;;;;;;5110257;28;20020;-74
2021/12/30 12:27:18;;;;;;;10.20;4.70;;;13.50;99.90;;;;;;5108269;28;20028;-73
2021/12/30 12:30:05;;;;;;;17.70;6.40;;;13.50;99.90;;;;;;5091057;28;20025;-73
2021/12/30 12:32:30;;;;;;;16.90;5.07;;;13.50;99.90;;;;;;5090511;28;20039;-73
2021/12/30 12:34:59;;;;;;;9.65;5.07;;;13.50;99.90;;;;;;5089072;28;20111;-74
2021/12/30 12:37:36;;;;;;;12.48;4.63;;;13.50;99.90;;;;;;5089378;28;20047;-74
2021/12/30 12:40:11;;;;;;;16.02;4.65;;;13.50;99.90;;;;;;5088964;28;20040;-73
2021/12/30 12:42:48;;;;;;;15.93;4.97;;;13.50;99.90;;;;;;5089643;28;20035;-73